KDYR  Dyersburg Regional Airport

Add Bookmark

Dyersburg, Tennessee, United States

Status Useage
Operational Public
Latitude Longitude
35° 59' 52" N 89° 24' 23" W
35.997972 -89.406583
Local (DST -5) UTC (GMT -6)
Jul 26, 2014 12:05 Jul 26, 2014 05:05
Sunrise-Sunset Local UTC
Begin Civil Twilight 05:31 10:31
Sunrise 05:59 10:59
Sunset 08:08 01:08
End Civil Twilight 08:37 01:37

Current Weather

METAR Observed VFR
KDYR 260455Z 00000KT 10SM CLR 21/14 A3000 Sat, Jul 26, 2014 @ 04:55 UTC
(10 Minutes ago)
Visual Flight Rules

Decoded METAR

Wind Visibility Clouds Conditions
Calm 10 statute miles
  • Clear skies
  • No significant weather
Temperatures Readings Precipitation
Current Temp 21°C (70°F)
Dewpoint 14°C (57°F)
Humidity 64%
Altimeter 30"Hg
Sea Level Pressure 1016mb
Field Elevation 337'
None Recorded

Additional weather within a 50nm radius of KDYR

Map ICAO Location
KHKA 20.9nm W (261°)
KBYH 26.2nm W (266°)
KUCY 30.7nm N (042°)
KMKL 33.8nm S (135°)
KNQA 44.6nm S (211°)

24 Hour Weather History

Loading
-

24 Hour Weather Graphs

Loading
-

CheckWX.com is intended as a tool to help pilots better visualize weather data. It is not intended as a substitute for an official weather briefing obtained from a Flight Service Station. CheckWX.com does not meet the FAA requirements for an official pre-flight weather briefing. Therefore, it's important that pilots still call and obtain an official FSS pre-flight weather briefing.